地図

経路データ

SID SEASON NUMBER BASIN SUBBASIN NAME ISO_TIME NATURE LAT LON WMO_WIND WMO_PRES WMO_AGENCY TRACK_TYPE DIST2LAND LANDFALL IFLAG USA_AGENCY USA_ATCF_ID USA_LAT USA_LON USA_RECORD USA_STATUS USA_WIND USA_PRES USA_SSHS USA_R34_NE USA_R34_SE USA_R34_SW USA_R34_NW USA_R50_NE USA_R50_SE USA_R50_SW USA_R50_NW USA_R64_NE USA_R64_SE USA_R64_SW USA_R64_NW USA_POCI USA_ROCI USA_RMW USA_EYE TOKYO_LAT TOKYO_LON TOKYO_GRADE TOKYO_WIND TOKYO_PRES TOKYO_R50_DIR TOKYO_R50_LONG TOKYO_R50_SHORT TOKYO_R30_DIR TOKYO_R30_LONG TOKYO_R30_SHORT TOKYO_LAND CMA_LAT CMA_LON CMA_CAT CMA_WIND CMA_PRES HKO_LAT HKO_LON HKO_CAT HKO_WIND HKO_PRES NEWDELHI_LAT NEWDELHI_LON NEWDELHI_GRADE NEWDELHI_WIND NEWDELHI_PRES NEWDELHI_CI NEWDELHI_DP NEWDELHI_POCI REUNION_LAT REUNION_LON REUNION_TYPE REUNION_WIND REUNION_PRES REUNION_TNUM REUNION_CI REUNION_RMW REUNION_R34_NE REUNION_R34_SE REUNION_R34_SW REUNION_R34_NW REUNION_R50_NE REUNION_R50_SE REUNION_R50_SW REUNION_R50_NW REUNION_R64_NE REUNION_R64_SE REUNION_R64_SW REUNION_R64_NW BOM_LAT BOM_LON BOM_TYPE BOM_WIND BOM_PRES BOM_TNUM BOM_CI BOM_RMW BOM_R34_NE BOM_R34_SE BOM_R34_SW BOM_R34_NW BOM_R50_NE BOM_R50_SE BOM_R50_SW BOM_R50_NW BOM_R64_NE BOM_R64_SE BOM_R64_SW BOM_R64_NW BOM_ROCI BOM_POCI BOM_EYE BOM_POS_METHOD BOM_PRES_METHOD NADI_LAT NADI_LON NADI_CAT NADI_WIND NADI_PRES WELLINGTON_LAT WELLINGTON_LON WELLINGTON_WIND WELLINGTON_PRES DS824_LAT DS824_LON DS824_STAGE DS824_WIND DS824_PRES TD9636_LAT TD9636_LON TD9636_STAGE TD9636_WIND TD9636_PRES TD9635_LAT TD9635_LON TD9635_WIND TD9635_PRES TD9635_ROCI NEUMANN_LAT NEUMANN_LON NEUMANN_CLASS NEUMANN_WIND NEUMANN_PRES MLC_LAT MLC_LON MLC_CLASS MLC_WIND MLC_PRES USA_GUST BOM_GUST BOM_GUST_PER REUNION_GUST REUNION_GUST_PER USA_SEAHGT USA_SEARAD_NE USA_SEARAD_SE USA_SEARAD_SW USA_SEARAD_NW STORM_SPEED STORM_DIR
1932240N21291 1932 43 NA NA NOT_NAMED 1932-08-26 18:00:00 TS 20.5000 -69.2000 30 hurdat_atl main 130 123 O_____________ hurdat_atl AL031932 20.5000 -69.2000 TD 30 -1 6 299
1932240N21291 1932 43 NA NA NOT_NAMED 1932-08-26 21:00:00 TS 20.6492 -69.4877 main 123 123 P_____________ AL031932 20.6492 -69.4877 TD 30 -1 8 292
1932240N21291 1932 43 NA NA NOT_NAMED 1932-08-27 00:00:00 TS 20.8000 -70.0000 30 hurdat_atl main 128 119 O_____________ hurdat_atl AL031932 20.8000 -70.0000 TD 30 -1 13 283
1932240N21291 1932 43 NA NA NOT_NAMED 1932-08-27 03:00:00 TS 20.9512 -70.8498 main 134 134 P_____________ AL031932 20.9512 -70.8498 TD 30 -1 16 281
1932240N21291 1932 43 NA NA NOT_NAMED 1932-08-27 06:00:00 TS 21.1000 -71.7000 30 hurdat_atl main 135 93 O_____________ hurdat_atl AL031932 21.1000 -71.7000 TD 30 -1 13 284
1932240N21291 1932 43 NA NA NOT_NAMED 1932-08-27 09:00:00 TS 21.2567 -72.1677 main 83 56 P_____________ AL031932 21.2567 -72.1677 TD 30 -1 8 292
1932240N21291 1932 43 NA NA NOT_NAMED 1932-08-27 12:00:00 TS 21.4000 -72.5000 30 hurdat_atl main 56 35 O_____________ hurdat_atl AL031932 21.4000 -72.5000 TD 30 -1 7 291
1932240N21291 1932 43 NA NA NOT_NAMED 1932-08-27 15:00:00 TS 21.5150 -72.9075 main 35 33 P_____________ AL031932 21.5150 -72.9075 TD 32 -1 8 285
1932240N21291 1932 43 NA NA NOT_NAMED 1932-08-27 18:00:00 TS 21.6000 -73.3000 35 hurdat_atl main 45 45 O_____________ hurdat_atl AL031932 21.6000 -73.3000 TS 35 0 7 282
1932240N21291 1932 43 NA NA NOT_NAMED 1932-08-27 21:00:00 TS 21.6573 -73.6501 main 67 67 P_____________ AL031932 21.6573 -73.6501 TS 35 0 7 279
1932240N21291 1932 43 NA NA NOT_NAMED 1932-08-28 00:00:00 TS 21.7000 -74.0000 35 hurdat_atl main 73 73 O_____________ hurdat_atl AL031932 21.7000 -74.0000 TS 35 0 7 277
1932240N21291 1932 43 NA NA NOT_NAMED 1932-08-28 03:00:00 TS 21.7425 -74.4001 main 98 98 P_____________ AL031932 21.7425 -74.4001 TS 37 0 8 278
1932240N21291 1932 43 NA NA NOT_NAMED 1932-08-28 06:00:00 TS 21.8000 -74.8000 40 hurdat_atl main 121 108 O_____________ hurdat_atl AL031932 21.8000 -74.8000 TS 40 0 7 281
1932240N21291 1932 43 NA NA NOT_NAMED 1932-08-28 09:00:00 TS 21.8774 -75.1576 main 108 102 P_____________ AL031932 21.8774 -75.1576 TS 40 0 7 287
1932240N21291 1932 43 NA NA NOT_NAMED 1932-08-28 12:00:00 TS 22.0000 -75.5000 40 hurdat_atl main 112 108 O_____________ hurdat_atl AL031932 22.0000 -75.5000 TS 40 0 7 295
1932240N21291 1932 43 NA NA NOT_NAMED 1932-08-28 15:00:00 TS 22.1774 -75.8426 main 119 113 P_____________ AL031932 22.1774 -75.8426 TS 40 0 8 302
1932240N21291 1932 43 NA NA NOT_NAMED 1932-08-28 18:00:00 TS 22.4000 -76.2000 40 hurdat_atl main 121 113 O_____________ hurdat_atl AL031932 22.4000 -76.2000 TS 40 0 8 304
1932240N21291 1932 43 NA NA NOT_NAMED 1932-08-28 21:00:00 TS 22.6425 -76.6000 main 113 113 P_____________ AL031932 22.6425 -76.6000 TS 42 0 9 304
1932240N21291 1932 43 NA NA NOT_NAMED 1932-08-29 00:00:00 TS 22.9000 -77.0000 45 hurdat_atl main 134 132 O_____________ hurdat_atl AL031932 22.9000 -77.0000 TS 45 0 9 305
1932240N21291 1932 43 NA NA NOT_NAMED 1932-08-29 03:00:00 TS 23.1424 -77.3652 main 136 94 P_____________ AL031932 23.1424 -77.3652 TS 47 0 8 308
1932240N21291 1932 43 NA NA NOT_NAMED 1932-08-29 06:00:00 TS 23.4000 -77.7000 50 hurdat_atl main 94 55 O_____________ hurdat_atl AL031932 23.4000 -77.7000 TS 50 0 8 314
1932240N21291 1932 43 NA NA NOT_NAMED 1932-08-29 09:00:00 TS 23.6999 -78.0001 main 55 30 P_____________ AL031932 23.6999 -78.0001 TS 50 0 8 318
1932240N21291 1932 43 NA NA NOT_NAMED 1932-08-29 12:00:00 TS 24.0000 -78.3000 50 hurdat_atl main 37 37 O_____________ hurdat_atl AL031932 24.0000 -78.3000 TS 50 0 8 314
1932240N21291 1932 43 NA NA NOT_NAMED 1932-08-29 15:00:00 TS 24.2574 -78.6352 main 35 35 P_____________ AL031932 24.2574 -78.6352 TS 52 0 8 308
1932240N21291 1932 43 NA NA NOT_NAMED 1932-08-29 18:00:00 TS 24.5000 -79.0000 55 hurdat_atl main 51 51 O_____________ hurdat_atl AL031932 24.5000 -79.0000 TS 55 0 9 306
1932240N21291 1932 43 NA NA NOT_NAMED 1932-08-29 21:00:00 TS 24.7545 -79.3975 main 93 61 P_____________ AL031932 24.7545 -79.3975 TS 55 0 9 305
1932240N21291 1932 43 NA NA NOT_NAMED 1932-08-30 00:00:00 TS 25.0000 -79.8000 55 hurdat_atl main 61 30 O_____________ hurdat_atl AL031932 25.0000 -79.8000 TS 55 0 8 304
1932240N21291 1932 43 NA NA NOT_NAMED 1932-08-30 03:00:00 TS 25.2157 -80.1459 main 30 10 P_____________ AL031932 25.2157 -80.1459 TS 55 0 8 304
1932240N21291 1932 43 NA NA NOT_NAMED 1932-08-30 04:00:00 TS 25.3000 -80.3000 55 hurdat_atl main 10 0 O_____________ hurdat_atl AL031932 25.3000 -80.3000 L TS 55 0 12 300
1932240N21291 1932 43 NA NA NOT_NAMED 1932-08-30 06:00:00 TS 25.5000 -80.7000 55 hurdat_atl main 0 0 O_____________ hurdat_atl AL031932 25.5000 -80.7000 TS 55 0 12 298
1932240N21291 1932 43 NA NA NOT_NAMED 1932-08-30 09:00:00 TS 25.7678 -81.2554 main 0 0 P_____________ AL031932 25.7678 -81.2554 TS 52 0 11 297
1932240N21291 1932 43 NA GM NOT_NAMED 1932-08-30 12:00:00 TS 26.0000 -81.8000 50 hurdat_atl main 9 9 O_____________ hurdat_atl AL031932 26.0000 -81.8000 TS 50 0 11 293
1932240N21291 1932 43 NA GM NOT_NAMED 1932-08-30 15:00:00 TS 26.2074 -82.4002 main 52 52 P_____________ AL031932 26.2074 -82.4002 TS 52 0 11 290
1932240N21291 1932 43 NA GM NOT_NAMED 1932-08-30 18:00:00 TS 26.4000 -83.0000 55 hurdat_atl main 82 82 O_____________ hurdat_atl AL031932 26.4000 -83.0000 TS 55 0 11 291
1932240N21291 1932 43 NA GM NOT_NAMED 1932-08-30 21:00:00 TS 26.5999 -83.5726 main 126 126 P_____________ AL031932 26.5999 -83.5726 TS 60 0 11 292
1932240N21291 1932 43 NA GM NOT_NAMED 1932-08-31 00:00:00 TS 26.8000 -84.1000 65 hurdat_atl main 158 158 O_____________ hurdat_atl AL031932 26.8000 -84.1000 HU 65 1 10 293
1932240N21291 1932 43 NA GM NOT_NAMED 1932-08-31 03:00:00 TS 26.9848 -84.5729 main 195 195 P_____________ AL031932 26.9848 -84.5729 HU 67 1 9 297
1932240N21291 1932 43 NA GM NOT_NAMED 1932-08-31 06:00:00 TS 27.2000 -85.0000 70 hurdat_atl main 221 221 O_____________ hurdat_atl AL031932 27.2000 -85.0000 HU 70 1 9 303
1932240N21291 1932 43 NA GM NOT_NAMED 1932-08-31 09:00:00 TS 27.4698 -85.4078 main 245 215 P_____________ AL031932 27.4698 -85.4078 HU 70 1 9 310
1932240N21291 1932 43 NA GM NOT_NAMED 1932-08-31 12:00:00 TS 27.8000 -85.8000 70 hurdat_atl main 215 184 O_____________ hurdat_atl AL031932 27.8000 -85.8000 HU 70 1 10 315
1932240N21291 1932 43 NA GM NOT_NAMED 1932-08-31 15:00:00 TS 28.1774 -86.2002 main 184 169 P_____________ AL031932 28.1774 -86.2002 HU 70 1 11 319
1932240N21291 1932 43 NA GM NOT_NAMED 1932-08-31 18:00:00 TS 28.6000 -86.6000 70 hurdat_atl main 169 146 O_____________ hurdat_atl AL031932 28.6000 -86.6000 HU 70 1 11 321
1932240N21291 1932 43 NA GM NOT_NAMED 1932-08-31 21:00:00 TS 29.0475 -86.9969 main 146 89 P_____________ AL031932 29.0475 -86.9969 HU 72 1 11 322
1932240N21291 1932 43 NA GM NOT_NAMED 1932-09-01 00:00:00 TS 29.5000 -87.4000 75 hurdat_atl main 89 38 O_____________ hurdat_atl AL031932 29.5000 -87.4000 HU 75 1 12 321
1932240N21291 1932 43 NA GM NOT_NAMED 1932-09-01 03:00:00 TS 29.9506 -87.8468 main 29 9 P_____________ AL031932 29.9506 -87.8468 HU 75 1 11 319
1932240N21291 1932 43 NA GM NOT_NAMED 1932-09-01 05:00:00 TS 30.2000 -88.1000 75 979 hurdat_atl main 9 9 O_____________ hurdat_atl AL031932 30.2000 -88.1000 L HU 75 979 1 9 319
1932240N21291 1932 43 NA GM NOT_NAMED 1932-09-01 06:00:00 TS 30.3000 -88.2000 75 979 hurdat_atl main 9 0 O_____________ hurdat_atl AL031932 30.3000 -88.2000 HU 75 979 1 8 329
1932240N21291 1932 43 NA NA NOT_NAMED 1932-09-01 09:00:00 TS 30.6729 -88.4271 main 0 0 P_____________ AL031932 30.6729 -88.4271 HU 67 1 9 337
1932240N21291 1932 43 NA NA NOT_NAMED 1932-09-01 12:00:00 TS 31.1000 -88.6000 60 hurdat_atl main 0 0 O_____________ hurdat_atl AL031932 31.1000 -88.6000 TS 60 0 9 339
1932240N21291 1932 43 NA NA NOT_NAMED 1932-09-01 15:00:00 TS 31.5075 -88.8001 main 0 0 P_____________ AL031932 31.5075 -88.8001 TS 55 0 9 337
1932240N21291 1932 43 NA NA NOT_NAMED 1932-09-01 18:00:00 TS 31.9000 -89.0000 50 hurdat_atl main 0 0 O_____________ hurdat_atl AL031932 31.9000 -89.0000 TS 50 0 8 336
1932240N21291 1932 43 NA NA NOT_NAMED 1932-09-01 21:00:00 TS 32.2575 -89.2002 main 0 0 P_____________ AL031932 32.2575 -89.2002 TS 45 0 8 334
1932240N21291 1932 43 NA NA NOT_NAMED 1932-09-02 00:00:00 TS 32.6000 -89.4000 40 hurdat_atl main 0 0 O_____________ hurdat_atl AL031932 32.6000 -89.4000 TS 40 0 8 333
1932240N21291 1932 43 NA NA NOT_NAMED 1932-09-02 03:00:00 TS 32.9425 -89.6076 main 0 0 P_____________ AL031932 32.9425 -89.6076 TS 37 0 8 334
1932240N21291 1932 43 NA NA NOT_NAMED 1932-09-02 06:00:00 TS 33.3000 -89.8000 35 hurdat_atl main 0 0 O_____________ hurdat_atl AL031932 33.3000 -89.8000 TS 35 0 8 337
1932240N21291 1932 43 NA NA NOT_NAMED 1932-09-02 09:00:00 TS 33.6700 -89.9799 main 0 0 P_____________ AL031932 33.6700 -89.9799 TS 32 -1 8 343
1932240N21291 1932 43 NA NA NOT_NAMED 1932-09-02 12:00:00 ET 34.1000 -90.1000 30 hurdat_atl main 0 0 O_____________ hurdat_atl AL031932 34.1000 -90.1000 EX 30 -4 10 352
1932240N21291 1932 43 NA NA NOT_NAMED 1932-09-02 15:00:00 ET 34.6200 -90.1375 main 0 0 P_____________ AL031932 34.6200 -90.1375 EX 30 -4 11 0
1932240N21291 1932 43 NA NA NOT_NAMED 1932-09-02 18:00:00 ET 35.2000 -90.1000 30 hurdat_atl main 0 0 O_____________ hurdat_atl AL031932 35.2000 -90.1000 EX 30 -4 12 4
1932240N21291 1932 43 NA NA NOT_NAMED 1932-09-02 21:00:00 ET 35.7850 -90.0298 main 0 0 P_____________ AL031932 35.7850 -90.0298 EX 30 -4 12 8
1932240N21291 1932 43 NA NA NOT_NAMED 1932-09-03 00:00:00 ET 36.4000 -89.9000 30 hurdat_atl main 0 0 O_____________ hurdat_atl AL031932 36.4000 -89.9000 EX 30 -4 13 11
1932240N21291 1932 43 NA NA NOT_NAMED 1932-09-03 03:00:00 ET 37.0425 -89.7224 main 0 0 P_____________ AL031932 37.0425 -89.7224 EX 30 -4 13 14
1932240N21291 1932 43 NA NA NOT_NAMED 1932-09-03 06:00:00 ET 37.7000 -89.5000 30 hurdat_atl main 0 0 O_____________ hurdat_atl AL031932 37.7000 -89.5000 EX 30 -4 13 14
1932240N21291 1932 43 NA NA NOT_NAMED 1932-09-03 09:00:00 ET 38.3343 -89.3225 main 0 0 P_____________ AL031932 38.3343 -89.3225 EX 30 -4 14 17
1932240N21291 1932 43 NA NA NOT_NAMED 1932-09-03 12:00:00 ET 39.0000 -89.0000 30 hurdat_atl main 0 0 O_____________ hurdat_atl AL031932 39.0000 -89.0000 EX 30 -4 15 26
1932240N21291 1932 43 NA NA NOT_NAMED 1932-09-03 15:00:00 ET 39.7185 -88.4544 main 0 0 P_____________ AL031932 39.7185 -88.4544 EX 32 -4 18 36
1932240N21291 1932 43 NA NA NOT_NAMED 1932-09-03 18:00:00 ET 40.5000 -87.6000 35 hurdat_atl main 0 0 O_____________ hurdat_atl AL031932 40.5000 -87.6000 EX 35 -4 22 44
1932240N21291 1932 43 NA NA NOT_NAMED 1932-09-03 21:00:00 ET 41.3277 -86.4187 main 0 0 P_____________ AL031932 41.3277 -86.4187 EX 37 -4 26 49
1932240N21291 1932 43 NA NA NOT_NAMED 1932-09-04 00:00:00 ET 42.2000 -85.0000 40 hurdat_atl main 0 0 O_____________ hurdat_atl AL031932 42.2000 -85.0000 EX 40 -4 27 50
1932240N21291 1932 43 NA NA NOT_NAMED 1932-09-04 03:00:00 ET 43.0736 -83.5972 main 0 0 P_____________ AL031932 43.0736 -83.5972 EX 42 -4 28 51
1932240N21291 1932 43 NA NA NOT_NAMED 1932-09-04 06:00:00 ET 44.0000 -82.0000 45 hurdat_atl main 0 0 O_____________ hurdat_atl AL031932 44.0000 -82.0000 EX 45 -4 32 53
1932240N21291 1932 43 NA NA NOT_NAMED 1932-09-04 09:00:00 ET 44.9854 -80.0728 main 0 0 P_____________ AL031932 44.9854 -80.0728 EX 45 -4 35 55
1932240N21291 1932 43 NA NA NOT_NAMED 1932-09-04 12:00:00 ET 46.0000 -78.0000 45 hurdat_atl main 0 0 O_____________ hurdat_atl AL031932 46.0000 -78.0000 EX 45 -4 35 54
1932240N21291 1932 43 NA NA NOT_NAMED 1932-09-04 15:00:00 ET 47.0094 -75.9877 main 0 0 P_____________ AL031932 47.0094 -75.9877 EX 45 -4 34 54
1932240N21291 1932 43 NA NA NOT_NAMED 1932-09-04 18:00:00 ET 48.0000 -74.0000 45 hurdat_atl main 0 O_____________ hurdat_atl AL031932 48.0000 -74.0000 EX 45 -4 33 53

IBTrACS Databaseについて

本データベースは、米国NOAAが公開する1842年以降の世界の熱帯低気圧のベストトラックデータアーカイブInternational Best Track Archive for Climate Stewardship (IBTrACS)を、ウェブで閲覧しやすい形式に変換したものです。

最終更新日:2021-10-08